createdAt,value
2022-10-18T00:02:32.042Z,14.52
2022-10-18T00:05:16.358Z,14.51
2022-10-18T00:08:18.289Z,14.50
2022-10-18T00:11:07.833Z,14.48
2022-10-18T00:14:03.733Z,14.48
2022-10-18T00:16:58.788Z,14.49
2022-10-18T00:19:33.531Z,14.48
2022-10-18T00:22:30.544Z,14.49
2022-10-18T00:25:22.392Z,14.49
2022-10-18T00:27:58.612Z,14.46
2022-10-18T00:30:34.500Z,14.44
2022-10-18T00:33:10.361Z,14.47
2022-10-18T00:35:47.727Z,14.41
2022-10-18T00:38:31.980Z,14.45
2022-10-18T00:41:35.771Z,14.43
2022-10-18T00:44:11.074Z,14.44
2022-10-18T00:46:58.393Z,14.42
2022-10-18T00:49:43.604Z,14.43
2022-10-18T00:52:53.909Z,14.45
2022-10-18T00:55:34.373Z,14.44
2022-10-18T00:58:18.024Z,14.43
2022-10-18T01:00:56.824Z,14.37
2022-10-18T01:03:29.936Z,14.38
2022-10-18T01:06:03.681Z,14.35
2022-10-18T01:09:07.905Z,14.39
2022-10-18T01:12:39.658Z,14.42
2022-10-18T01:16:00.338Z,14.44
2022-10-18T01:18:58.752Z,14.44
2022-10-18T01:21:52.828Z,14.42
2022-10-18T01:24:56.551Z,14.44
2022-10-18T01:28:30.227Z,14.43
2022-10-18T01:31:35.932Z,14.41
2022-10-18T01:34:16.610Z,14.35
2022-10-18T01:36:58.659Z,14.34
2022-10-18T01:39:42.485Z,14.37
2022-10-18T01:42:40.056Z,14.36
2022-10-18T01:45:56.956Z,14.35
2022-10-18T01:48:42.646Z,14.35
2022-10-18T01:51:41.708Z,14.34
2022-10-18T01:54:42.522Z,14.35
2022-10-18T01:57:32.438Z,14.33
2022-10-18T02:00:35.862Z,14.29
2022-10-18T02:03:23.755Z,14.27
2022-10-18T02:06:29.010Z,14.23
2022-10-18T02:09:19.985Z,14.21
2022-10-18T02:11:56.421Z,14.19
2022-10-18T02:14:37.110Z,14.21
2022-10-18T02:17:19.315Z,14.19
2022-10-18T02:20:10.563Z,14.17
2022-10-18T02:23:07.982Z,14.17
2022-10-18T02:25:45.194Z,14.17
2022-10-18T02:28:29.287Z,14.15
2022-10-18T02:32:11.786Z,14.15
2022-10-18T02:35:24.039Z,14.10
2022-10-18T02:38:23.511Z,14.13
2022-10-18T02:41:20.968Z,14.12
2022-10-18T02:44:49.616Z,14.09
2022-10-18T02:47:32.287Z,14.09
2022-10-18T02:50:10.116Z,14.12
2022-10-18T02:52:44.910Z,14.04
2022-10-18T02:55:21.539Z,14.11
2022-10-18T02:57:57.071Z,14.14
2022-10-18T03:00:35.227Z,14.08
2022-10-18T03:03:07.976Z,14.07
2022-10-18T03:05:42.306Z,14.14
2022-10-18T03:08:18.513Z,14.13
2022-10-18T03:10:53.138Z,14.21
2022-10-18T03:13:37.959Z,14.16
2022-10-18T03:16:42.591Z,14.07
2022-10-18T03:19:31.261Z,14.03
2022-10-18T03:22:20.803Z,14.08
2022-10-18T03:24:59.644Z,14.06
2022-10-18T03:27:48.671Z,14.05
2022-10-18T03:30:29.141Z,14.03
2022-10-18T03:35:53.364Z,13.93
2022-10-18T03:38:26.368Z,13.89
2022-10-18T03:41:09.922Z,13.97
2022-10-18T03:43:49.485Z,14.08
2022-10-18T03:46:37.361Z,14.09
2022-10-18T03:49:20.202Z,14.06
2022-10-18T03:51:53.113Z,14.06
2022-10-18T03:54:31.419Z,14.11
2022-10-18T03:57:07.295Z,14.10
2022-10-18T03:59:42.435Z,14.02
2022-10-18T04:02:25.859Z,14.04
2022-10-18T04:05:02.313Z,13.93
2022-10-18T04:07:41.897Z,13.85
2022-10-18T04:10:20.139Z,13.84
2022-10-18T04:13:03.021Z,13.85
2022-10-18T04:15:40.458Z,13.80
2022-10-18T04:18:15.645Z,13.86
2022-10-18T04:20:49.779Z,13.88
2022-10-18T04:23:25.627Z,13.89
2022-10-18T04:26:04.462Z,13.75
2022-10-18T04:28:48.832Z,13.66
2022-10-18T04:31:31.496Z,13.66
2022-10-18T04:34:37.773Z,13.64
2022-10-18T04:37:21.747Z,13.63
2022-10-18T04:40:12.977Z,13.62
2022-10-18T04:42:53.706Z,13.57
2022-10-18T04:45:39.111Z,13.51
2022-10-18T04:48:17.694Z,13.44
2022-10-18T04:50:52.683Z,13.47
2022-10-18T04:53:31.079Z,13.50
2022-10-18T04:56:03.798Z,13.50
2022-10-18T04:58:36.768Z,13.45
2022-10-18T05:01:09.378Z,13.43
2022-10-18T05:03:42.060Z,13.40
2022-10-18T05:06:14.770Z,13.39
2022-10-18T05:08:51.268Z,13.40
2022-10-18T05:11:33.491Z,13.39
2022-10-18T05:14:08.185Z,13.38
2022-10-18T05:16:43.862Z,13.36
2022-10-18T05:19:16.511Z,13.33
2022-10-18T05:21:49.312Z,13.30
2022-10-18T05:24:24.220Z,13.27
2022-10-18T05:27:00.356Z,13.30
2022-10-18T05:29:33.238Z,13.27
2022-10-18T05:32:05.939Z,13.30
2022-10-18T05:34:38.699Z,13.27
2022-10-18T05:37:13.989Z,13.24
2022-10-18T05:39:57.792Z,13.21
2022-10-18T05:42:30.794Z,13.19
2022-10-18T05:45:04.365Z,13.22
2022-10-18T05:47:37.160Z,13.22
2022-10-18T05:50:10.318Z,13.16
2022-10-18T05:52:43.019Z,13.18
2022-10-18T05:55:16.104Z,13.19
2022-10-18T05:57:54.401Z,13.12
2022-10-18T06:00:31.254Z,13.03
2022-10-18T06:03:06.537Z,13.04
2022-10-18T06:05:41.822Z,13.08
2022-10-18T06:08:20.738Z,13.08
2022-10-18T06:10:53.503Z,13.01
2022-10-18T06:13:26.465Z,12.98
2022-10-18T06:15:59.296Z,13.05
2022-10-18T06:18:31.923Z,13.10
2022-10-18T06:21:05.222Z,13.09
2022-10-18T06:23:38.071Z,13.06
2022-10-18T06:26:18.021Z,13.07
2022-10-18T06:28:51.440Z,13.01
2022-10-18T06:31:25.667Z,13.01
2022-10-18T06:34:03.833Z,13.10
2022-10-18T06:36:40.475Z,13.14
2022-10-18T06:39:13.206Z,13.17
2022-10-18T06:41:46.010Z,13.21
2022-10-18T06:44:21.821Z,13.20
2022-10-18T06:46:56.687Z,13.19
2022-10-18T06:49:29.249Z,13.27
2022-10-18T06:52:02.042Z,13.25
2022-10-18T06:54:37.841Z,13.33
2022-10-18T06:57:10.415Z,13.13
2022-10-18T06:59:43.477Z,13.23
2022-10-18T07:02:19.914Z,13.30
2022-10-18T07:04:52.489Z,13.16
2022-10-18T07:07:25.153Z,13.19
2022-10-18T07:09:59.143Z,13.18
2022-10-18T07:12:33.233Z,13.21
2022-10-18T07:15:09.400Z,13.24
2022-10-18T07:17:43.657Z,13.09
2022-10-18T07:20:16.732Z,13.01
2022-10-18T07:22:49.381Z,13.16
2022-10-18T07:25:23.877Z,13.23
2022-10-18T07:27:58.553Z,13.26
2022-10-18T07:30:31.212Z,13.41
2022-10-18T07:33:06.299Z,13.10
2022-10-18T07:35:38.974Z,13.34
2022-10-18T07:38:14.158Z,13.27
2022-10-18T07:41:07.416Z,13.01
2022-10-18T07:43:50.979Z,13.26
2022-10-18T07:46:23.636Z,13.26
2022-10-18T07:48:58.331Z,13.50
2022-10-18T07:51:33.972Z,13.31
2022-10-18T07:54:06.764Z,13.09
2022-10-18T07:56:39.478Z,13.43
2022-10-18T07:59:14.535Z,13.44
2022-10-18T08:01:58.184Z,13.53
2022-10-18T08:04:32.810Z,13.34
2022-10-18T08:07:09.739Z,13.33
2022-10-18T08:09:45.553Z,13.55
2022-10-18T08:12:24.818Z,13.77
2022-10-18T08:15:00.647Z,13.96
2022-10-18T08:17:37.025Z,13.97
2022-10-18T08:20:30.398Z,14.12
2022-10-18T08:23:11.338Z,14.43
2022-10-18T08:25:46.939Z,14.53
2022-10-18T08:28:29.908Z,14.36
2022-10-18T08:31:08.342Z,14.44
2022-10-18T08:33:42.984Z,14.38
2022-10-18T08:36:17.527Z,14.46
2022-10-18T08:38:52.937Z,14.61
2022-10-18T08:42:01.922Z,14.59
2022-10-18T08:44:49.778Z,14.77
2022-10-18T08:47:43.910Z,14.75
2022-10-18T08:50:46.952Z,15.03
2022-10-18T08:53:29.900Z,14.87
2022-10-18T08:56:21.679Z,15.07
2022-10-18T08:59:00.611Z,14.90
2022-10-18T09:02:08.370Z,14.93
2022-10-18T09:05:06.334Z,14.91
2022-10-18T09:08:25.880Z,14.91
2022-10-18T09:11:40.401Z,14.90
2022-10-18T09:14:25.205Z,14.95
2022-10-18T09:17:33.811Z,14.85
2022-10-18T09:20:22.917Z,14.90
2022-10-18T09:23:06.734Z,14.76
2022-10-18T09:26:20.543Z,14.77
2022-10-18T09:29:23.075Z,14.69
2022-10-18T09:32:19.343Z,14.72
2022-10-18T09:35:15.170Z,14.68
2022-10-18T09:37:52.337Z,14.61
2022-10-18T09:40:32.494Z,14.72
2022-10-18T09:43:22.919Z,14.85
2022-10-18T09:45:57.511Z,15.01
2022-10-18T09:48:49.361Z,14.90
2022-10-18T09:51:29.553Z,14.85
2022-10-18T09:54:19.192Z,15.19
2022-10-18T09:57:10.049Z,15.22
2022-10-18T09:59:45.813Z,15.23
2022-10-18T10:02:23.794Z,15.32
2022-10-18T10:04:57.096Z,15.42
2022-10-18T10:07:41.297Z,15.49
2022-10-18T10:10:25.266Z,15.53
2022-10-18T10:13:22.086Z,15.61
2022-10-18T10:16:03.287Z,15.57
2022-10-18T10:18:43.494Z,15.57
2022-10-18T10:21:17.463Z,15.60
2022-10-18T10:24:02.052Z,15.52
2022-10-18T10:26:41.681Z,15.61
2022-10-18T10:29:51.493Z,15.82
2022-10-18T10:32:30.748Z,15.75
2022-10-18T10:35:52.549Z,15.82
2022-10-18T10:38:29.309Z,15.69
2022-10-18T10:41:03.267Z,15.86
2022-10-18T10:43:40.093Z,16.05
2022-10-18T10:46:19.145Z,15.93
2022-10-18T10:49:27.889Z,15.97
2022-10-18T10:52:09.293Z,16.02
2022-10-18T10:57:52.809Z,15.79
2022-10-18T11:00:45.097Z,16.02
2022-10-18T11:03:28.968Z,16.08
2022-10-18T11:06:02.390Z,16.23
2022-10-18T11:08:43.558Z,16.31
2022-10-18T11:11:30.714Z,16.33
2022-10-18T11:14:26.292Z,16.29
2022-10-18T11:17:39.705Z,16.40
2022-10-18T11:20:32.938Z,16.29
2022-10-18T11:23:17.383Z,16.37
2022-10-18T11:26:11.495Z,16.38
2022-10-18T11:29:26.053Z,16.51
2022-10-18T11:32:12.112Z,16.50
2022-10-18T11:34:54.171Z,16.49
2022-10-18T11:38:14.266Z,16.56
2022-10-18T11:41:23.983Z,16.66
2022-10-18T11:44:04.409Z,16.84
2022-10-18T11:47:16.651Z,16.87
2022-10-18T11:50:08.672Z,16.88
2022-10-18T11:53:06.678Z,16.90
2022-10-18T11:56:30.165Z,16.93
2022-10-18T11:59:27.741Z,16.87
2022-10-18T12:02:42.073Z,17.01
2022-10-18T12:05:24.085Z,17.11
2022-10-18T12:08:07.103Z,16.78
2022-10-18T12:11:04.144Z,16.99
2022-10-18T12:13:51.210Z,16.96
2022-10-18T12:16:50.018Z,17.00
2022-10-18T12:19:28.394Z,17.09
2022-10-18T12:22:20.003Z,17.07
2022-10-18T12:24:52.733Z,17.15
2022-10-18T12:27:56.635Z,17.22
2022-10-18T12:30:54.357Z,17.21
2022-10-18T12:33:36.087Z,17.29
2022-10-18T12:36:20.814Z,17.19
2022-10-18T12:39:07.033Z,16.95
2022-10-18T12:41:39.776Z,16.97
2022-10-18T12:44:31.481Z,17.09
2022-10-18T12:47:06.628Z,16.98
2022-10-18T12:49:42.603Z,17.07
2022-10-18T12:52:24.911Z,17.04
2022-10-18T12:55:18.198Z,17.12
2022-10-18T12:57:53.621Z,17.14
2022-10-18T13:00:32.195Z,17.10
2022-10-18T13:03:14.222Z,17.25
2022-10-18T13:05:54.430Z,17.11
2022-10-18T13:08:27.795Z,17.19
2022-10-18T13:11:12.262Z,17.11
2022-10-18T13:14:17.294Z,17.02
2022-10-18T13:16:57.010Z,17.15
2022-10-18T13:19:38.043Z,17.18
2022-10-18T13:22:31.359Z,17.24
2022-10-18T13:25:33.107Z,17.30
2022-10-18T13:28:31.633Z,17.39
2022-10-18T13:31:39.506Z,17.21
2022-10-18T13:34:30.953Z,17.35
2022-10-18T13:37:20.703Z,17.32
2022-10-18T13:40:24.393Z,17.55
2022-10-18T13:42:57.064Z,17.50
2022-10-18T13:45:32.648Z,17.51
2022-10-18T13:48:30.242Z,17.33
2022-10-18T13:52:03.410Z,17.43
2022-10-18T13:55:15.975Z,17.20
2022-10-18T13:58:08.482Z,17.28
2022-10-18T14:00:49.462Z,17.34
2022-10-18T14:03:56.314Z,17.14
2022-10-18T14:06:43.145Z,17.19
2022-10-18T14:09:40.257Z,17.39
2022-10-18T14:12:44.115Z,17.15
2022-10-18T14:15:42.021Z,17.12
2022-10-18T14:18:31.778Z,17.00
2022-10-18T14:21:21.842Z,16.74
2022-10-18T14:23:55.259Z,16.99
2022-10-18T14:26:29.303Z,16.99
2022-10-18T14:29:16.192Z,17.02
2022-10-18T14:31:54.546Z,16.93
2022-10-18T14:34:27.115Z,17.00
2022-10-18T14:37:07.257Z,16.78
2022-10-18T14:39:51.399Z,16.95
2022-10-18T14:42:32.211Z,17.08
2022-10-18T14:45:22.978Z,17.17
2022-10-18T14:48:14.696Z,17.18
2022-10-18T14:51:00.129Z,17.05
2022-10-18T14:53:38.876Z,17.05
2022-10-18T14:56:25.482Z,16.99
2022-10-18T14:59:03.651Z,17.00
2022-10-18T15:01:36.623Z,16.86
2022-10-18T15:04:12.019Z,17.01
2022-10-18T15:06:45.061Z,16.98
2022-10-18T15:09:24.089Z,16.97
2022-10-18T15:11:57.993Z,16.74
2022-10-18T15:14:31.597Z,16.84
2022-10-18T15:17:25.124Z,16.83
2022-10-18T15:20:25.178Z,16.82
2022-10-18T15:23:33.276Z,16.81
2022-10-18T15:26:12.604Z,16.69
2022-10-18T15:28:54.051Z,16.67
2022-10-18T15:31:32.133Z,16.70
2022-10-18T15:34:30.770Z,16.68
2022-10-18T15:37:18.398Z,16.61
2022-10-18T15:40:32.909Z,16.56
2022-10-18T15:43:28.224Z,16.46
2022-10-18T15:46:06.702Z,16.45
2022-10-18T15:48:41.614Z,16.37
2022-10-18T15:51:48.300Z,16.33
2022-10-18T15:54:32.427Z,16.25
2022-10-18T15:57:11.562Z,16.20
2022-10-18T16:00:20.513Z,16.24
2022-10-18T16:02:53.055Z,16.19
2022-10-18T16:05:28.272Z,16.12
2022-10-18T16:08:01.044Z,15.96
2022-10-18T16:10:33.735Z,15.92
2022-10-18T16:13:06.696Z,15.90
2022-10-18T16:15:39.410Z,15.87
2022-10-18T16:18:19.284Z,15.88
2022-10-18T16:20:53.226Z,15.90
2022-10-18T16:23:31.143Z,15.89
2022-10-18T16:26:03.829Z,15.68
2022-10-18T16:28:36.614Z,15.53
2022-10-18T16:33:50.534Z,15.28
2022-10-18T16:36:26.973Z,15.13
2022-10-18T16:39:04.695Z,14.95
2022-10-18T16:41:37.264Z,14.81
2022-10-18T16:44:10.003Z,14.64
2022-10-18T16:46:42.834Z,14.46
2022-10-18T16:49:24.310Z,14.23
2022-10-18T16:51:57.511Z,13.97
2022-10-18T16:54:30.139Z,13.75
2022-10-18T16:57:02.682Z,13.54
2022-10-18T16:59:35.177Z,13.33
2022-10-18T17:02:09.384Z,13.14
2022-10-18T17:04:42.044Z,12.94
2022-10-18T17:07:25.534Z,12.79
2022-10-18T17:09:58.075Z,12.62
2022-10-18T17:12:30.707Z,12.50
2022-10-18T17:15:04.226Z,12.37
2022-10-18T17:17:38.140Z,12.25
2022-10-18T17:20:21.184Z,12.13
2022-10-18T17:22:54.238Z,12.05
2022-10-18T17:25:26.791Z,11.94
2022-10-18T17:27:59.297Z,11.84
2022-10-18T17:30:32.812Z,11.74
2022-10-18T17:33:08.554Z,11.65
2022-10-18T17:35:43.231Z,11.58
2022-10-18T17:38:15.911Z,11.47
2022-10-18T17:40:48.385Z,11.40
2022-10-18T17:43:20.981Z,11.36
2022-10-18T17:45:56.762Z,11.25
2022-10-18T17:48:29.491Z,11.21
2022-10-18T17:51:11.057Z,11.19
2022-10-18T17:53:44.121Z,11.21
2022-10-18T17:56:16.754Z,11.21
2022-10-18T17:58:52.824Z,11.20
2022-10-18T18:01:25.650Z,11.21
2022-10-18T18:04:01.366Z,11.18
2022-10-18T18:06:38.921Z,11.18
2022-10-18T18:09:15.097Z,11.15
2022-10-18T18:11:48.798Z,11.11
2022-10-18T18:14:21.601Z,11.04
2022-10-18T18:16:54.820Z,10.97
2022-10-18T18:19:27.633Z,10.92
2022-10-18T18:22:00.386Z,10.87
2022-10-18T18:24:33.404Z,10.85
2022-10-18T18:27:05.947Z,10.81
2022-10-18T18:29:38.538Z,10.73
2022-10-18T18:32:11.080Z,10.69
2022-10-18T18:34:43.711Z,10.62
2022-10-18T18:37:16.203Z,10.59
2022-10-18T18:39:48.949Z,10.53
2022-10-18T18:42:22.523Z,10.52
2022-10-18T18:44:55.115Z,10.53
2022-10-18T18:47:28.030Z,10.51
2022-10-18T18:50:02.417Z,10.47
2022-10-18T18:52:35.218Z,10.41
2022-10-18T18:55:08.826Z,10.33
2022-10-18T18:57:41.406Z,10.25
2022-10-18T19:00:14.922Z,10.18
2022-10-18T19:02:47.406Z,10.12
2022-10-18T19:05:20.078Z,10.02
2022-10-18T19:07:52.633Z,9.95
2022-10-18T19:10:26.061Z,9.87
2022-10-18T19:12:58.635Z,9.80
2022-10-18T19:15:31.277Z,9.71
2022-10-18T19:18:05.508Z,9.65
2022-10-18T19:20:38.037Z,9.60
2022-10-18T19:23:10.667Z,9.55
2022-10-18T19:25:43.208Z,9.48
2022-10-18T19:28:15.667Z,9.42
2022-10-18T19:30:50.218Z,9.41
2022-10-18T19:33:41.073Z,9.38
2022-10-18T19:36:15.605Z,9.32
2022-10-18T19:38:48.166Z,9.29
2022-10-18T19:41:21.566Z,9.25
2022-10-18T19:43:55.709Z,9.18
2022-10-18T19:46:28.430Z,9.15
2022-10-18T19:49:01.011Z,9.11
2022-10-18T19:51:33.690Z,9.10
2022-10-18T19:54:06.556Z,9.06
2022-10-18T19:56:39.469Z,9.08
2022-10-18T19:59:15.116Z,9.04
2022-10-18T20:01:47.689Z,8.92
2022-10-18T20:04:20.329Z,8.85
2022-10-18T20:06:52.817Z,8.81
2022-10-18T20:09:25.435Z,8.77
2022-10-18T20:11:58.584Z,8.72
2022-10-18T20:14:31.347Z,8.68
2022-10-18T20:17:05.735Z,8.65
2022-10-18T20:19:38.549Z,8.56
2022-10-18T20:22:11.071Z,8.52
2022-10-18T20:24:43.609Z,8.49
2022-10-18T20:27:16.344Z,8.48
2022-10-18T20:29:48.995Z,8.48
2022-10-18T20:32:21.509Z,8.46
2022-10-18T20:34:54.065Z,8.44
2022-10-18T20:37:26.586Z,8.42
2022-10-18T20:40:00.141Z,8.38
2022-10-18T20:42:32.650Z,8.36
2022-10-18T20:45:07.730Z,8.34
2022-10-18T20:47:40.322Z,8.31
2022-10-18T20:50:12.926Z,8.28
2022-10-18T20:52:50.997Z,8.24
2022-10-18T20:55:23.615Z,8.23
2022-10-18T20:57:56.162Z,8.20
2022-10-18T21:00:28.671Z,8.19
2022-10-18T21:03:01.518Z,8.17
2022-10-18T21:05:34.099Z,8.19
2022-10-18T21:08:06.608Z,8.18
2022-10-18T21:10:39.156Z,8.18
2022-10-18T21:13:11.680Z,8.20
2022-10-18T21:15:44.194Z,8.19
2022-10-18T21:18:16.713Z,8.16
2022-10-18T21:20:49.236Z,8.16
2022-10-18T21:23:22.603Z,8.14
2022-10-18T21:25:55.111Z,8.12
2022-10-18T21:28:27.776Z,8.08
2022-10-18T21:31:19.526Z,8.11
2022-10-18T21:34:00.736Z,8.08
2022-10-18T21:36:37.651Z,8.06
2022-10-18T21:39:18.836Z,8.03
2022-10-18T21:41:51.797Z,8.05
2022-10-18T21:44:24.355Z,8.00
2022-10-18T21:46:56.923Z,7.95
2022-10-18T21:49:30.251Z,7.91
2022-10-18T21:52:05.265Z,7.87
2022-10-18T21:54:37.977Z,7.83
2022-10-18T21:57:10.545Z,7.78
2022-10-18T21:59:43.410Z,7.78
2022-10-18T22:02:15.918Z,7.71
2022-10-18T22:04:49.605Z,7.69
2022-10-18T22:07:22.142Z,7.68
2022-10-18T22:09:54.657Z,7.70
2022-10-18T22:12:27.202Z,7.70
2022-10-18T22:15:00.299Z,7.70
2022-10-18T22:17:33.167Z,7.68
2022-10-18T22:20:06.761Z,7.66
2022-10-18T22:22:39.341Z,7.63
2022-10-18T22:25:11.923Z,7.61
2022-10-18T22:27:44.411Z,7.58
2022-10-18T22:30:17.049Z,7.54
2022-10-18T22:32:49.611Z,7.52
2022-10-18T22:35:22.427Z,7.49
2022-10-18T22:37:54.894Z,7.47
2022-10-18T22:40:27.864Z,7.45
2022-10-18T22:43:00.414Z,7.43
2022-10-18T22:45:33.011Z,7.39
2022-10-18T22:48:06.264Z,7.37
2022-10-18T22:50:38.769Z,7.32
2022-10-18T22:53:11.330Z,7.29
2022-10-18T22:55:43.798Z,7.29
2022-10-18T22:58:16.522Z,7.30
2022-10-18T23:00:49.346Z,7.28
2022-10-18T23:03:21.856Z,7.23
2022-10-18T23:05:57.971Z,7.20
2022-10-18T23:08:31.186Z,7.22
2022-10-18T23:11:03.665Z,7.20
2022-10-18T23:13:38.832Z,7.16
2022-10-18T23:16:12.678Z,7.13
2022-10-18T23:18:51.691Z,7.11
2022-10-18T23:21:27.934Z,7.07
2022-10-18T23:24:00.480Z,7.04
2022-10-18T23:26:33.409Z,7.02
2022-10-18T23:29:06.016Z,7.00
2022-10-18T23:31:38.875Z,6.97
2022-10-18T23:34:11.502Z,6.97
2022-10-18T23:39:21.691Z,6.95
2022-10-18T23:41:54.227Z,6.91
2022-10-18T23:44:26.783Z,6.87
2022-10-18T23:46:59.323Z,6.86
2022-10-18T23:49:31.890Z,6.85
2022-10-18T23:52:04.546Z,6.86
2022-10-18T23:54:37.093Z,6.87
2022-10-18T23:57:09.606Z,6.89
2022-10-18T23:59:42.226Z,6.88
